<?xml version="1.0" encoding="UTF-8" standalone="no" ?>
<gpx xmlns="http://www.topografix.com/GPX/1/1" xmlns:xsi="http://www.w3.org/2001/XMLSchema-instance" xsi:schemaLocation="http://www.topografix.com/GPX/1/1 http://www.topografix.com/GPX/1/1/gpx.xsd" version="1.1" creator="VisuGPX - https://www.visugpx.com">
  <metadata>
    <name>GR222 De Pont-de-l'Arche test boucle</name>
  </metadata>
  <wpt lat="49.08393" lon="1.09406">
    <ele>142.2</ele>
  </wpt>
  <trk>
    <name><![CDATA[GR222 De Pont-de-l'Arche à Verneuil-sur-Avre (Eure) (2019)]]></name>
    <trkseg>
      <trkpt lat="49.30624" lon="1.15065">
        <ele>13</ele>
        <time>2016-11-21T16:09:30Z</time>
      </trkpt>
      <trkpt lat="49.30624" lon="1.15065">
        <ele>13</ele>
        <time>2016-11-21T16:09:30Z</time>
      </trkpt>
      <trkpt lat="49.30634" lon="1.14921">
        <ele>12.3</ele>
        <time>2016-11-21T16:09:50Z</time>
      </trkpt>
      <trkpt lat="49.30602" lon="1.14691">
        <ele>17.1</ele>
        <time>2016-11-21T16:10:10Z</time>
      </trkpt>
      <trkpt lat="49.3051" lon="1.1467">
        <ele>22</ele>
        <time>2016-11-21T16:10:30Z</time>
      </trkpt>
      <trkpt lat="49.30452" lon="1.14628">
        <ele>22.3</ele>
        <time>2016-11-21T16:10:50Z</time>
      </trkpt>
      <trkpt lat="49.30372" lon="1.1452">
        <ele>22.5</ele>
        <time>2016-11-21T16:11:10Z</time>
      </trkpt>
      <trkpt lat="49.30317" lon="1.1442">
        <ele>23.4</ele>
        <time>2016-11-21T16:11:30Z</time>
      </trkpt>
      <trkpt lat="49.30273" lon="1.1429">
        <ele>24.4</ele>
        <time>2016-11-21T16:11:50Z</time>
      </trkpt>
      <trkpt lat="49.30237" lon="1.14029">
        <ele>24.1</ele>
        <time>2016-11-21T16:12:10Z</time>
      </trkpt>
      <trkpt lat="49.30211" lon="1.1394">
        <ele>23.7</ele>
        <time>2016-11-21T16:12:30Z</time>
      </trkpt>
      <trkpt lat="49.30206" lon="1.13838">
        <ele>22.1</ele>
        <time>2016-11-21T16:12:50Z</time>
      </trkpt>
      <trkpt lat="49.30183" lon="1.13681">
        <ele>19.7</ele>
        <time>2016-11-21T16:13:10Z</time>
      </trkpt>
      <trkpt lat="49.2999" lon="1.13637">
        <ele>34.3</ele>
        <time>2016-11-21T16:13:30Z</time>
      </trkpt>
      <trkpt lat="49.29931" lon="1.13756">
        <ele>25.7</ele>
        <time>2016-11-21T16:13:50Z</time>
      </trkpt>
      <trkpt lat="49.29884" lon="1.13688">
        <ele>34.2</ele>
        <time>2016-11-21T16:14:10Z</time>
      </trkpt>
      <trkpt lat="49.29806" lon="1.13832">
        <ele>29.3</ele>
        <time>2016-11-21T16:14:30Z</time>
      </trkpt>
      <trkpt lat="49.29751" lon="1.13999">
        <ele>25.1</ele>
        <time>2016-11-21T16:14:50Z</time>
      </trkpt>
      <trkpt lat="49.29721" lon="1.14112">
        <ele>36.2</ele>
        <time>2016-11-21T16:15:10Z</time>
      </trkpt>
      <trkpt lat="49.296" lon="1.14342">
        <ele>53.1</ele>
        <time>2016-11-21T16:15:30Z</time>
      </trkpt>
      <trkpt lat="49.2916" lon="1.13828">
        <ele>55.8</ele>
        <time>2016-11-21T16:15:50Z</time>
      </trkpt>
      <trkpt lat="49.29144" lon="1.13955">
        <ele>56.4</ele>
        <time>2016-11-21T16:16:10Z</time>
      </trkpt>
      <trkpt lat="49.28354" lon="1.13022">
        <ele>73.2</ele>
        <time>2016-11-21T16:16:30Z</time>
      </trkpt>
      <trkpt lat="49.28366" lon="1.12845">
        <ele>73.1</ele>
        <time>2016-11-21T16:16:50Z</time>
      </trkpt>
      <trkpt lat="49.28435" lon="1.12758">
        <ele>69.4</ele>
        <time>2016-11-21T16:17:10Z</time>
      </trkpt>
      <trkpt lat="49.28443" lon="1.12711">
        <ele>67.9</ele>
        <time>2016-11-21T16:17:30Z</time>
      </trkpt>
      <trkpt lat="49.284" lon="1.12455">
        <ele>69.9</ele>
        <time>2016-11-21T16:17:50Z</time>
      </trkpt>
      <trkpt lat="49.28428" lon="1.1213">
        <ele>64.5</ele>
        <time>2016-11-21T16:18:10Z</time>
      </trkpt>
      <trkpt lat="49.28196" lon="1.11849">
        <ele>67.9</ele>
        <time>2016-11-21T16:18:30Z</time>
      </trkpt>
      <trkpt lat="49.28165" lon="1.11658">
        <ele>72.6</ele>
        <time>2016-11-21T16:18:50Z</time>
      </trkpt>
      <trkpt lat="49.28067" lon="1.11472">
        <ele>82.7</ele>
        <time>2016-11-21T16:19:10Z</time>
      </trkpt>
      <trkpt lat="49.28021" lon="1.11301">
        <ele>92.3</ele>
        <time>2016-11-21T16:19:30Z</time>
      </trkpt>
      <trkpt lat="49.2798" lon="1.11239">
        <ele>99.7</ele>
        <time>2016-11-21T16:19:50Z</time>
      </trkpt>
      <trkpt lat="49.27932" lon="1.11199">
        <ele>102.8</ele>
        <time>2016-11-21T16:20:10Z</time>
      </trkpt>
      <trkpt lat="49.27878" lon="1.1112">
        <ele>108.9</ele>
        <time>2016-11-21T16:20:30Z</time>
      </trkpt>
      <trkpt lat="49.27842" lon="1.11047">
        <ele>113.1</ele>
        <time>2016-11-21T16:20:50Z</time>
      </trkpt>
      <trkpt lat="49.2783" lon="1.10973">
        <ele>118.6</ele>
        <time>2016-11-21T16:21:10Z</time>
      </trkpt>
      <trkpt lat="49.27806" lon="1.10894">
        <ele>124.2</ele>
        <time>2016-11-21T16:21:30Z</time>
      </trkpt>
      <trkpt lat="49.27804" lon="1.10826">
        <ele>127.7</ele>
        <time>2016-11-21T16:21:50Z</time>
      </trkpt>
      <trkpt lat="49.27811" lon="1.10747">
        <ele>128.6</ele>
        <time>2016-11-21T16:22:10Z</time>
      </trkpt>
      <trkpt lat="49.278" lon="1.10687">
        <ele>129.6</ele>
        <time>2016-11-21T16:22:30Z</time>
      </trkpt>
      <trkpt lat="49.27752" lon="1.10626">
        <ele>130.6</ele>
        <time>2016-11-21T16:22:50Z</time>
      </trkpt>
      <trkpt lat="49.27674" lon="1.10533">
        <ele>131.2</ele>
        <time>2016-11-21T16:23:10Z</time>
      </trkpt>
      <trkpt lat="49.27638" lon="1.10437">
        <ele>131.6</ele>
        <time>2016-11-21T16:23:30Z</time>
      </trkpt>
      <trkpt lat="49.27607" lon="1.10394">
        <ele>131.2</ele>
        <time>2016-11-21T16:23:50Z</time>
      </trkpt>
      <trkpt lat="49.27549" lon="1.10339">
        <ele>130.7</ele>
        <time>2016-11-21T16:24:10Z</time>
      </trkpt>
      <trkpt lat="49.27511" lon="1.10216">
        <ele>133.3</ele>
        <time>2016-11-21T16:24:30Z</time>
      </trkpt>
      <trkpt lat="49.27476" lon="1.10079">
        <ele>133.5</ele>
        <time>2016-11-21T16:25:10Z</time>
      </trkpt>
      <trkpt lat="49.27449" lon="1.10034">
        <ele>133.1</ele>
        <time>2016-11-21T16:27:10Z</time>
      </trkpt>
      <trkpt lat="49.27384" lon="1.0999">
        <ele>131.1</ele>
        <time>2016-11-21T16:27:30Z</time>
      </trkpt>
      <trkpt lat="49.27336" lon="1.09943">
        <ele>130.9</ele>
        <time>2016-11-21T16:27:50Z</time>
      </trkpt>
      <trkpt lat="49.27309" lon="1.099">
        <ele>127.9</ele>
        <time>2016-11-21T16:28:10Z</time>
      </trkpt>
      <trkpt lat="49.27295" lon="1.09898">
        <ele>127</ele>
        <time>2016-11-21T16:28:30Z</time>
      </trkpt>
      <trkpt lat="49.27283" lon="1.09886">
        <ele>126.4</ele>
        <time>2016-11-21T16:29:50Z</time>
      </trkpt>
      <trkpt lat="49.27251" lon="1.0987">
        <ele>125.3</ele>
        <time>2016-11-21T16:30:10Z</time>
      </trkpt>
      <trkpt lat="49.27182" lon="1.09907">
        <ele>124.3</ele>
        <time>2016-11-21T16:30:30Z</time>
      </trkpt>
      <trkpt lat="49.27159" lon="1.09927">
        <ele>126.1</ele>
        <time>2016-11-21T16:30:50Z</time>
      </trkpt>
      <trkpt lat="49.27155" lon="1.09885">
        <ele>127.5</ele>
        <time>2016-11-21T16:31:10Z</time>
      </trkpt>
      <trkpt lat="49.27166" lon="1.09834">
        <ele>124.2</ele>
        <time>2016-11-21T16:31:30Z</time>
      </trkpt>
      <trkpt lat="49.2717" lon="1.0975">
        <ele>123.7</ele>
        <time>2016-11-21T16:31:50Z</time>
      </trkpt>
      <trkpt lat="49.27132" lon="1.09688">
        <ele>126.8</ele>
        <time>2016-11-21T16:32:10Z</time>
      </trkpt>
      <trkpt lat="49.27113" lon="1.09581">
        <ele>125.2</ele>
        <time>2016-11-21T16:32:30Z</time>
      </trkpt>
      <trkpt lat="49.27116" lon="1.09512">
        <ele>124.5</ele>
        <time>2016-11-21T16:32:50Z</time>
      </trkpt>
      <trkpt lat="49.27142" lon="1.09436">
        <ele>121.8</ele>
        <time>2016-11-21T16:33:10Z</time>
      </trkpt>
      <trkpt lat="49.27207" lon="1.09364">
        <ele>113.3</ele>
        <time>2016-11-21T16:33:30Z</time>
      </trkpt>
      <trkpt lat="49.2724" lon="1.09264">
        <ele>105.9</ele>
        <time>2016-11-21T16:33:50Z</time>
      </trkpt>
      <trkpt lat="49.27251" lon="1.09164">
        <ele>95.5</ele>
        <time>2016-11-21T16:34:10Z</time>
      </trkpt>
      <trkpt lat="49.2724" lon="1.09096">
        <ele>88.3</ele>
        <time>2016-11-21T16:34:30Z</time>
      </trkpt>
      <trkpt lat="49.27158" lon="1.09195">
        <ele>97.1</ele>
        <time>2016-11-21T16:34:50Z</time>
      </trkpt>
      <trkpt lat="49.27079" lon="1.09257">
        <ele>104.4</ele>
        <time>2016-11-21T16:35:10Z</time>
      </trkpt>
      <trkpt lat="49.27032" lon="1.09273">
        <ele>108.6</ele>
        <time>2016-11-21T16:35:30Z</time>
      </trkpt>
      <trkpt lat="49.26978" lon="1.09282">
        <ele>109.3</ele>
        <time>2016-11-21T16:35:50Z</time>
      </trkpt>
      <trkpt lat="49.26932" lon="1.09311">
        <ele>112.3</ele>
        <time>2016-11-21T16:36:10Z</time>
      </trkpt>
      <trkpt lat="49.2689" lon="1.09327">
        <ele>112.4</ele>
        <time>2016-11-21T16:36:30Z</time>
      </trkpt>
      <trkpt lat="49.26841" lon="1.09368">
        <ele>120.3</ele>
        <time>2016-11-21T16:36:50Z</time>
      </trkpt>
      <trkpt lat="49.26795" lon="1.09394">
        <ele>119.8</ele>
        <time>2016-11-21T16:37:10Z</time>
      </trkpt>
      <trkpt lat="49.26733" lon="1.09462">
        <ele>122.2</ele>
        <time>2016-11-21T16:37:30Z</time>
      </trkpt>
      <trkpt lat="49.26686" lon="1.09508">
        <ele>124</ele>
        <time>2016-11-21T16:37:50Z</time>
      </trkpt>
      <trkpt lat="49.26656" lon="1.09602">
        <ele>124</ele>
        <time>2016-11-21T16:38:10Z</time>
      </trkpt>
      <trkpt lat="49.26631" lon="1.09671">
        <ele>124.9</ele>
        <time>2016-11-21T16:38:30Z</time>
      </trkpt>
      <trkpt lat="49.26616" lon="1.09897">
        <ele>126.4</ele>
        <time>2016-11-21T16:38:50Z</time>
      </trkpt>
      <trkpt lat="49.26593" lon="1.10059">
        <ele>128.5</ele>
        <time>2016-11-21T16:39:10Z</time>
      </trkpt>
      <trkpt lat="49.26591" lon="1.10245">
        <ele>128.1</ele>
        <time>2016-11-21T16:39:30Z</time>
      </trkpt>
      <trkpt lat="49.26556" lon="1.10301">
        <ele>126.6</ele>
        <time>2016-11-21T16:39:50Z</time>
      </trkpt>
      <trkpt lat="49.26517" lon="1.10433">
        <ele>126.9</ele>
        <time>2016-11-21T16:40:10Z</time>
      </trkpt>
      <trkpt lat="49.26234" lon="1.10834">
        <ele>126.9</ele>
        <time>2016-11-21T16:40:30Z</time>
      </trkpt>
      <trkpt lat="49.26191" lon="1.10906">
        <ele>126.8</ele>
        <time>2016-11-21T16:40:50Z</time>
      </trkpt>
      <trkpt lat="49.26176" lon="1.10962">
        <ele>125.9</ele>
        <time>2016-11-21T16:41:10Z</time>
      </trkpt>
      <trkpt lat="49.2613" lon="1.11064">
        <ele>123.6</ele>
        <time>2016-11-21T16:41:30Z</time>
      </trkpt>
      <trkpt lat="49.26077" lon="1.11213">
        <ele>120.6</ele>
        <time>2016-11-21T16:41:50Z</time>
      </trkpt>
      <trkpt lat="49.26053" lon="1.11193">
        <ele>120.8</ele>
        <time>2016-11-21T16:42:10Z</time>
      </trkpt>
      <trkpt lat="49.26019" lon="1.11195">
        <ele>121</ele>
        <time>2016-11-21T16:42:30Z</time>
      </trkpt>
      <trkpt lat="49.26006" lon="1.11124">
        <ele>122.3</ele>
        <time>2016-11-21T16:42:50Z</time>
      </trkpt>
      <trkpt lat="49.25988" lon="1.11106">
        <ele>122.2</ele>
        <time>2016-11-21T16:43:10Z</time>
      </trkpt>
      <trkpt lat="49.25942" lon="1.11121">
        <ele>121.6</ele>
        <time>2016-11-21T16:43:30Z</time>
      </trkpt>
      <trkpt lat="49.25898" lon="1.111">
        <ele>119.7</ele>
        <time>2016-11-21T16:44:30Z</time>
      </trkpt>
      <trkpt lat="49.25787" lon="1.11178">
        <ele>115.2</ele>
        <time>2016-11-21T16:44:50Z</time>
      </trkpt>
      <trkpt lat="49.2572" lon="1.11385">
        <ele>111.5</ele>
        <time>2016-11-21T16:45:10Z</time>
      </trkpt>
      <trkpt lat="49.25583" lon="1.11594">
        <ele>109.8</ele>
        <time>2016-11-21T16:45:30Z</time>
      </trkpt>
      <trkpt lat="49.25557" lon="1.11808">
        <ele>104.7</ele>
        <time>2016-11-21T16:45:50Z</time>
      </trkpt>
      <trkpt lat="49.2553" lon="1.11892">
        <ele>102.5</ele>
        <time>2016-11-21T16:46:10Z</time>
      </trkpt>
      <trkpt lat="49.25491" lon="1.11942">
        <ele>104.1</ele>
        <time>2016-11-21T16:46:30Z</time>
      </trkpt>
      <trkpt lat="49.25322" lon="1.11958">
        <ele>95.7</ele>
        <time>2016-11-21T16:46:50Z</time>
      </trkpt>
      <trkpt lat="49.25288" lon="1.11975">
        <ele>94.3</ele>
        <time>2016-11-21T16:47:10Z</time>
      </trkpt>
      <trkpt lat="49.25174" lon="1.12086">
        <ele>91.4</ele>
        <time>2016-11-21T16:47:30Z</time>
      </trkpt>
      <trkpt lat="49.25087" lon="1.12144">
        <ele>90.3</ele>
        <time>2016-11-21T16:47:50Z</time>
      </trkpt>
      <trkpt lat="49.25035" lon="1.12191">
        <ele>90.1</ele>
        <time>2016-11-21T16:48:10Z</time>
      </trkpt>
      <trkpt lat="49.24996" lon="1.12263">
        <ele>90.8</ele>
        <time>2016-11-21T16:48:30Z</time>
      </trkpt>
      <trkpt lat="49.24979" lon="1.12314">
        <ele>93.5</ele>
        <time>2016-11-21T16:48:50Z</time>
      </trkpt>
      <trkpt lat="49.24984" lon="1.1237">
        <ele>95.9</ele>
        <time>2016-11-21T16:49:10Z</time>
      </trkpt>
      <trkpt lat="49.25036" lon="1.12507">
        <ele>101.2</ele>
        <time>2016-11-21T16:49:30Z</time>
      </trkpt>
      <trkpt lat="49.25051" lon="1.1261">
        <ele>99.2</ele>
        <time>2016-11-21T16:49:50Z</time>
      </trkpt>
      <trkpt lat="49.25045" lon="1.12955">
        <ele>93.5</ele>
        <time>2016-11-21T16:50:10Z</time>
      </trkpt>
      <trkpt lat="49.25026" lon="1.12998">
        <ele>91.2</ele>
        <time>2016-11-21T16:50:30Z</time>
      </trkpt>
      <trkpt lat="49.2492" lon="1.13127">
        <ele>83.8</ele>
        <time>2016-11-21T16:50:50Z</time>
      </trkpt>
      <trkpt lat="49.24889" lon="1.13218">
        <ele>83</ele>
        <time>2016-11-21T16:51:10Z</time>
      </trkpt>
      <trkpt lat="49.24889" lon="1.13289">
        <ele>82.3</ele>
        <time>2016-11-21T16:51:30Z</time>
      </trkpt>
      <trkpt lat="49.24911" lon="1.13425">
        <ele>83.7</ele>
        <time>2016-11-21T16:51:50Z</time>
      </trkpt>
      <trkpt lat="49.24958" lon="1.13551">
        <ele>82.4</ele>
        <time>2016-11-21T16:52:10Z</time>
      </trkpt>
      <trkpt lat="49.25024" lon="1.1366">
        <ele>82.6</ele>
        <time>2016-11-21T16:52:30Z</time>
      </trkpt>
      <trkpt lat="49.25056" lon="1.13759">
        <ele>78.6</ele>
        <time>2016-11-21T16:52:50Z</time>
      </trkpt>
      <trkpt lat="49.25036" lon="1.13884">
        <ele>74.2</ele>
        <time>2016-11-21T16:53:10Z</time>
      </trkpt>
      <trkpt lat="49.2501" lon="1.1393">
        <ele>72.7</ele>
        <time>2016-11-21T16:54:10Z</time>
      </trkpt>
      <trkpt lat="49.24822" lon="1.13838">
        <ele>78</ele>
        <time>2016-11-21T16:54:30Z</time>
      </trkpt>
      <trkpt lat="49.24882" lon="1.13828">
        <ele>78.6</ele>
        <time>2016-11-21T16:54:50Z</time>
      </trkpt>
      <trkpt lat="49.24934" lon="1.13758">
        <ele>77.5</ele>
        <time>2016-11-21T16:55:10Z</time>
      </trkpt>
      <trkpt lat="49.24956" lon="1.13682">
        <ele>77.3</ele>
        <time>2016-11-21T16:55:30Z</time>
      </trkpt>
      <trkpt lat="49.24916" lon="1.13556">
        <ele>80.3</ele>
        <time>2016-11-21T16:55:50Z</time>
      </trkpt>
      <trkpt lat="49.24868" lon="1.13463">
        <ele>83.6</ele>
        <time>2016-11-21T16:56:10Z</time>
      </trkpt>
      <trkpt lat="49.24848" lon="1.13365">
        <ele>83.2</ele>
        <time>2016-11-21T16:56:30Z</time>
      </trkpt>
      <trkpt lat="49.24839" lon="1.13256">
        <ele>82</ele>
        <time>2016-11-21T16:56:50Z</time>
      </trkpt>
      <trkpt lat="49.24843" lon="1.13213">
        <ele>83.9</ele>
        <time>2016-11-21T16:57:10Z</time>
      </trkpt>
      <trkpt lat="49.24845" lon="1.13196">
        <ele>84.9</ele>
        <time>2016-11-21T16:57:30Z</time>
      </trkpt>
      <trkpt lat="49.24763" lon="1.13169">
        <ele>99</ele>
        <time>2016-11-21T16:57:50Z</time>
      </trkpt>
      <trkpt lat="49.24652" lon="1.13109">
        <ele>114.8</ele>
        <time>2016-11-21T16:58:10Z</time>
      </trkpt>
      <trkpt lat="49.24486" lon="1.13027">
        <ele>119.3</ele>
        <time>2016-11-21T16:58:30Z</time>
      </trkpt>
      <trkpt lat="49.23711" lon="1.12673">
        <ele>122.2</ele>
        <time>2016-11-21T16:58:50Z</time>
      </trkpt>
      <trkpt lat="49.23735" lon="1.12944">
        <ele>121.6</ele>
        <time>2016-11-21T16:59:10Z</time>
      </trkpt>
      <trkpt lat="49.23668" lon="1.1332">
        <ele>120.5</ele>
        <time>2016-11-21T16:59:30Z</time>
      </trkpt>
      <trkpt lat="49.2346" lon="1.13223">
        <ele>109.6</ele>
        <time>2016-11-21T16:59:50Z</time>
      </trkpt>
      <trkpt lat="49.23105" lon="1.13072">
        <ele>70.3</ele>
        <time>2016-11-21T17:00:10Z</time>
      </trkpt>
      <trkpt lat="49.23007" lon="1.13014">
        <ele>73.2</ele>
        <time>2016-11-21T17:00:30Z</time>
      </trkpt>
      <trkpt lat="49.2278" lon="1.12915">
        <ele>97.3</ele>
        <time>2016-11-21T17:00:50Z</time>
      </trkpt>
      <trkpt lat="49.22179" lon="1.12643">
        <ele>128.4</ele>
        <time>2016-11-21T17:01:10Z</time>
      </trkpt>
      <trkpt lat="49.21771" lon="1.12464">
        <ele>148.5</ele>
        <time>2016-11-21T17:01:30Z</time>
      </trkpt>
      <trkpt lat="49.21688" lon="1.1235">
        <ele>148.9</ele>
        <time>2016-11-21T17:02:10Z</time>
      </trkpt>
      <trkpt lat="49.21668" lon="1.12345">
        <ele>148.4</ele>
        <time>2016-11-21T17:02:30Z</time>
      </trkpt>
      <trkpt lat="49.21624" lon="1.12396">
        <ele>145.7</ele>
        <time>2016-11-21T17:02:50Z</time>
      </trkpt>
      <trkpt lat="49.20766" lon="1.12008">
        <ele>143.4</ele>
        <time>2016-11-21T17:03:10Z</time>
      </trkpt>
      <trkpt lat="49.20749" lon="1.1214">
        <ele>142.5</ele>
        <time>2016-11-21T17:03:30Z</time>
      </trkpt>
      <trkpt lat="49.20716" lon="1.12459">
        <ele>139</ele>
        <time>2016-11-21T17:03:50Z</time>
      </trkpt>
      <trkpt lat="49.20585" lon="1.12622">
        <ele>132.1</ele>
        <time>2016-11-21T17:04:10Z</time>
      </trkpt>
      <trkpt lat="49.20522" lon="1.12718">
        <ele>133</ele>
        <time>2016-11-21T17:04:30Z</time>
      </trkpt>
      <trkpt lat="49.20415" lon="1.12749">
        <ele>133</ele>
        <time>2016-11-21T17:04:50Z</time>
      </trkpt>
      <trkpt lat="49.20368" lon="1.12752">
        <ele>134.6</ele>
        <time>2016-11-21T17:05:10Z</time>
      </trkpt>
      <trkpt lat="49.20217" lon="1.12829">
        <ele>133.7</ele>
        <time>2016-11-21T17:05:30Z</time>
      </trkpt>
      <trkpt lat="49.20156" lon="1.1284">
        <ele>132</ele>
        <time>2016-11-21T17:05:50Z</time>
      </trkpt>
      <trkpt lat="49.20139" lon="1.1284">
        <ele>131.9</ele>
        <time>2016-11-21T17:06:10Z</time>
      </trkpt>
      <trkpt lat="49.20042" lon="1.12579">
        <ele>133</ele>
        <time>2016-11-21T17:08:10Z</time>
      </trkpt>
      <trkpt lat="49.19981" lon="1.12459">
        <ele>134.7</ele>
        <time>2016-11-21T17:08:30Z</time>
      </trkpt>
      <trkpt lat="49.19749" lon="1.12369">
        <ele>135.5</ele>
        <time>2016-11-21T17:08:50Z</time>
      </trkpt>
      <trkpt lat="49.19744" lon="1.12432">
        <ele>134</ele>
        <time>2016-11-21T17:09:50Z</time>
      </trkpt>
      <trkpt lat="49.19561" lon="1.12376">
        <ele>143.7</ele>
        <time>2016-11-21T17:10:10Z</time>
      </trkpt>
      <trkpt lat="49.19517" lon="1.12317">
        <ele>140.2</ele>
        <time>2016-11-21T17:10:30Z</time>
      </trkpt>
      <trkpt lat="49.1936" lon="1.12016">
        <ele>140.7</ele>
        <time>2016-11-21T17:10:50Z</time>
      </trkpt>
      <trkpt lat="49.19319" lon="1.1184">
        <ele>143.7</ele>
        <time>2016-11-21T17:11:10Z</time>
      </trkpt>
      <trkpt lat="49.19278" lon="1.1172">
        <ele>145.6</ele>
        <time>2016-11-21T17:11:30Z</time>
      </trkpt>
      <trkpt lat="49.19257" lon="1.11627">
        <ele>145.5</ele>
        <time>2016-11-21T17:11:50Z</time>
      </trkpt>
      <trkpt lat="49.19228" lon="1.11576">
        <ele>145.1</ele>
        <time>2016-11-21T17:12:10Z</time>
      </trkpt>
      <trkpt lat="49.19144" lon="1.11497">
        <ele>140.3</ele>
        <time>2016-11-21T17:12:30Z</time>
      </trkpt>
      <trkpt lat="49.18993" lon="1.11402">
        <ele>142.7</ele>
        <time>2016-11-21T17:12:50Z</time>
      </trkpt>
      <trkpt lat="49.18747" lon="1.11303">
        <ele>142.4</ele>
        <time>2016-11-21T17:13:10Z</time>
      </trkpt>
      <trkpt lat="49.1857" lon="1.11128">
        <ele>140.6</ele>
        <time>2016-11-21T17:13:30Z</time>
      </trkpt>
      <trkpt lat="49.18552" lon="1.11104">
        <ele>141</ele>
        <time>2016-11-21T17:13:50Z</time>
      </trkpt>
      <trkpt lat="49.18509" lon="1.11106">
        <ele>140.7</ele>
        <time>2016-11-21T17:14:10Z</time>
      </trkpt>
      <trkpt lat="49.1847" lon="1.11167">
        <ele>137</ele>
        <time>2016-11-21T17:14:30Z</time>
      </trkpt>
      <trkpt lat="49.18404" lon="1.11204">
        <ele>128.6</ele>
        <time>2016-11-21T17:14:50Z</time>
      </trkpt>
      <trkpt lat="49.18316" lon="1.11216">
        <ele>123.2</ele>
        <time>2016-11-21T17:15:10Z</time>
      </trkpt>
      <trkpt lat="49.18196" lon="1.11217">
        <ele>130.3</ele>
        <time>2016-11-21T17:15:30Z</time>
      </trkpt>
      <trkpt lat="49.1813" lon="1.11167">
        <ele>133.8</ele>
        <time>2016-11-21T17:15:50Z</time>
      </trkpt>
      <trkpt lat="49.18095" lon="1.11112">
        <ele>134.9</ele>
        <time>2016-11-21T17:16:10Z</time>
      </trkpt>
      <trkpt lat="49.1807" lon="1.11107">
        <ele>135.7</ele>
        <time>2016-11-21T17:16:30Z</time>
      </trkpt>
      <trkpt lat="49.1801" lon="1.11036">
        <ele>135.6</ele>
        <time>2016-11-21T17:16:50Z</time>
      </trkpt>
      <trkpt lat="49.17961" lon="1.10966">
        <ele>135</ele>
        <time>2016-11-21T17:17:10Z</time>
      </trkpt>
      <trkpt lat="49.17923" lon="1.10904">
        <ele>136</ele>
        <time>2016-11-21T17:17:30Z</time>
      </trkpt>
      <trkpt lat="49.17727" lon="1.10962">
        <ele>141.1</ele>
        <time>2016-11-21T17:17:50Z</time>
      </trkpt>
      <trkpt lat="49.17698" lon="1.11053">
        <ele>140.2</ele>
        <time>2016-11-21T17:18:10Z</time>
      </trkpt>
      <trkpt lat="49.17693" lon="1.11192">
        <ele>138.8</ele>
        <time>2016-11-21T17:18:30Z</time>
      </trkpt>
      <trkpt lat="49.17659" lon="1.11168">
        <ele>138.8</ele>
        <time>2016-11-21T17:18:50Z</time>
      </trkpt>
      <trkpt lat="49.17622" lon="1.11089">
        <ele>139.5</ele>
        <time>2016-11-21T17:19:10Z</time>
      </trkpt>
      <trkpt lat="49.1744" lon="1.11225">
        <ele>140.5</ele>
        <time>2016-11-21T17:19:30Z</time>
      </trkpt>
      <trkpt lat="49.17429" lon="1.11285">
        <ele>139.7</ele>
        <time>2016-11-21T17:19:50Z</time>
      </trkpt>
      <trkpt lat="49.17432" lon="1.11381">
        <ele>139.1</ele>
        <time>2016-11-21T17:20:10Z</time>
      </trkpt>
      <trkpt lat="49.17411" lon="1.11466">
        <ele>139.7</ele>
        <time>2016-11-21T17:20:30Z</time>
      </trkpt>
      <trkpt lat="49.17027" lon="1.11478">
        <ele>145.4</ele>
        <time>2016-11-21T17:20:50Z</time>
      </trkpt>
      <trkpt lat="49.17032" lon="1.11804">
        <ele>145.5</ele>
        <time>2016-11-21T17:21:10Z</time>
      </trkpt>
      <trkpt lat="49.16736" lon="1.11818">
        <ele>145.2</ele>
        <time>2016-11-21T17:21:30Z</time>
      </trkpt>
      <trkpt lat="49.16629" lon="1.11876">
        <ele>147</ele>
        <time>2016-11-21T17:21:50Z</time>
      </trkpt>
      <trkpt lat="49.16503" lon="1.11911">
        <ele>148</ele>
        <time>2016-11-21T17:22:10Z</time>
      </trkpt>
      <trkpt lat="49.16299" lon="1.11933">
        <ele>149.4</ele>
        <time>2016-11-21T17:22:30Z</time>
      </trkpt>
      <trkpt lat="49.16307" lon="1.12403">
        <ele>145</ele>
        <time>2016-11-21T17:22:50Z</time>
      </trkpt>
      <trkpt lat="49.16309" lon="1.12756">
        <ele>139.4</ele>
        <time>2016-11-21T17:23:10Z</time>
      </trkpt>
      <trkpt lat="49.16183" lon="1.12941">
        <ele>138</ele>
        <time>2016-11-21T17:23:30Z</time>
      </trkpt>
      <trkpt lat="49.1602" lon="1.13118">
        <ele>132.4</ele>
        <time>2016-11-21T17:23:50Z</time>
      </trkpt>
      <trkpt lat="49.16025" lon="1.13177">
        <ele>132.6</ele>
        <time>2016-11-21T17:24:10Z</time>
      </trkpt>
      <trkpt lat="49.16065" lon="1.13239">
        <ele>132.9</ele>
        <time>2016-11-21T17:24:30Z</time>
      </trkpt>
      <trkpt lat="49.16073" lon="1.13405">
        <ele>134.5</ele>
        <time>2016-11-21T17:24:50Z</time>
      </trkpt>
      <trkpt lat="49.16098" lon="1.13504">
        <ele>134.3</ele>
        <time>2016-11-21T17:25:10Z</time>
      </trkpt>
      <trkpt lat="49.16046" lon="1.13549">
        <ele>133.8</ele>
        <time>2016-11-21T17:25:30Z</time>
      </trkpt>
      <trkpt lat="49.16003" lon="1.1356">
        <ele>133.1</ele>
        <time>2016-11-21T17:25:50Z</time>
      </trkpt>
      <trkpt lat="49.15955" lon="1.13612">
        <ele>131.2</ele>
        <time>2016-11-21T17:26:10Z</time>
      </trkpt>
      <trkpt lat="49.15937" lon="1.13674">
        <ele>131</ele>
        <time>2016-11-21T17:26:30Z</time>
      </trkpt>
      <trkpt lat="49.15865" lon="1.1374">
        <ele>130.2</ele>
        <time>2016-11-21T17:26:50Z</time>
      </trkpt>
      <trkpt lat="49.15757" lon="1.13765">
        <ele>129.9</ele>
        <time>2016-11-21T17:27:10Z</time>
      </trkpt>
      <trkpt lat="49.15696" lon="1.13836">
        <ele>129.9</ele>
        <time>2016-11-21T17:27:30Z</time>
      </trkpt>
      <trkpt lat="49.15675" lon="1.13884">
        <ele>128.4</ele>
        <time>2016-11-21T17:27:50Z</time>
      </trkpt>
      <trkpt lat="49.15622" lon="1.13955">
        <ele>124.3</ele>
        <time>2016-11-21T17:28:10Z</time>
      </trkpt>
      <trkpt lat="49.15588" lon="1.14039">
        <ele>124</ele>
        <time>2016-11-21T17:28:30Z</time>
      </trkpt>
      <trkpt lat="49.15562" lon="1.1416">
        <ele>125.9</ele>
        <time>2016-11-21T17:28:50Z</time>
      </trkpt>
      <trkpt lat="49.15512" lon="1.14287">
        <ele>120</ele>
        <time>2016-11-21T17:29:10Z</time>
      </trkpt>
      <trkpt lat="49.15488" lon="1.14376">
        <ele>114</ele>
        <time>2016-11-21T17:29:30Z</time>
      </trkpt>
      <trkpt lat="49.15466" lon="1.14514">
        <ele>106</ele>
        <time>2016-11-21T17:29:50Z</time>
      </trkpt>
      <trkpt lat="49.15435" lon="1.14574">
        <ele>101.5</ele>
        <time>2016-11-21T17:30:10Z</time>
      </trkpt>
      <trkpt lat="49.15399" lon="1.1461">
        <ele>91.7</ele>
        <time>2016-11-21T17:30:30Z</time>
      </trkpt>
      <trkpt lat="49.15317" lon="1.14666">
        <ele>76.6</ele>
        <time>2016-11-21T17:30:50Z</time>
      </trkpt>
      <trkpt lat="49.15301" lon="1.1473">
        <ele>65.3</ele>
        <time>2016-11-21T17:31:10Z</time>
      </trkpt>
      <trkpt lat="49.15305" lon="1.14846">
        <ele>52.8</ele>
        <time>2016-11-21T17:31:30Z</time>
      </trkpt>
      <trkpt lat="49.15334" lon="1.14955">
        <ele>56</ele>
        <time>2016-11-21T17:31:50Z</time>
      </trkpt>
      <trkpt lat="49.15357" lon="1.15197">
        <ele>34.9</ele>
        <time>2016-11-21T17:32:10Z</time>
      </trkpt>
      <trkpt lat="49.15348" lon="1.15233">
        <ele>33.2</ele>
        <time>2016-11-21T17:32:30Z</time>
      </trkpt>
      <trkpt lat="49.1531" lon="1.15261">
        <ele>28.6</ele>
        <time>2016-11-21T17:32:50Z</time>
      </trkpt>
      <trkpt lat="49.15349" lon="1.15437">
        <ele>27</ele>
        <time>2016-11-21T17:33:10Z</time>
      </trkpt>
      <trkpt lat="49.15411" lon="1.1557">
        <ele>25</ele>
        <time>2016-11-21T17:33:30Z</time>
      </trkpt>
      <trkpt lat="49.15399" lon="1.15624">
        <ele>24.8</ele>
        <time>2016-11-21T17:33:50Z</time>
      </trkpt>
      <trkpt lat="49.15356" lon="1.15675">
        <ele>25.1</ele>
        <time>2016-11-21T17:34:10Z</time>
      </trkpt>
      <trkpt lat="49.15339" lon="1.15719">
        <ele>25.2</ele>
        <time>2016-11-21T17:34:30Z</time>
      </trkpt>
      <trkpt lat="49.15306" lon="1.15763">
        <ele>24.9</ele>
        <time>2016-11-21T17:34:50Z</time>
      </trkpt>
      <trkpt lat="49.15324" lon="1.15939">
        <ele>24.5</ele>
        <time>2016-11-21T17:35:10Z</time>
      </trkpt>
      <trkpt lat="49.15321" lon="1.16233">
        <ele>22.8</ele>
        <time>2016-11-21T17:35:30Z</time>
      </trkpt>
      <trkpt lat="49.15295" lon="1.16518">
        <ele>21.5</ele>
        <time>2016-11-21T17:35:50Z</time>
      </trkpt>
      <trkpt lat="49.15277" lon="1.16605">
        <ele>20.8</ele>
        <time>2016-11-21T17:36:10Z</time>
      </trkpt>
      <trkpt lat="49.15266" lon="1.16776">
        <ele>22</ele>
        <time>2016-11-21T17:36:30Z</time>
      </trkpt>
      <trkpt lat="49.15204" lon="1.16947">
        <ele>25.2</ele>
        <time>2016-11-21T17:36:50Z</time>
      </trkpt>
      <trkpt lat="49.1515" lon="1.16954">
        <ele>32.5</ele>
        <time>2016-11-21T17:37:10Z</time>
      </trkpt>
      <trkpt lat="49.15138" lon="1.16871">
        <ele>29.9</ele>
        <time>2016-11-21T17:37:30Z</time>
      </trkpt>
      <trkpt lat="49.15138" lon="1.16783">
        <ele>26</ele>
        <time>2016-11-21T17:37:50Z</time>
      </trkpt>
      <trkpt lat="49.15105" lon="1.16712">
        <ele>25.8</ele>
        <time>2016-11-21T17:38:10Z</time>
      </trkpt>
      <trkpt lat="49.15071" lon="1.16586">
        <ele>25.7</ele>
        <time>2016-11-21T17:38:30Z</time>
      </trkpt>
      <trkpt lat="49.15044" lon="1.16527">
        <ele>30.7</ele>
        <time>2016-11-21T17:38:50Z</time>
      </trkpt>
      <trkpt lat="49.15016" lon="1.1648">
        <ele>32.4</ele>
        <time>2016-11-21T17:39:10Z</time>
      </trkpt>
      <trkpt lat="49.14935" lon="1.16257">
        <ele>40.6</ele>
        <time>2016-11-21T17:39:30Z</time>
      </trkpt>
      <trkpt lat="49.14806" lon="1.15955">
        <ele>44.7</ele>
        <time>2016-11-21T17:39:50Z</time>
      </trkpt>
      <trkpt lat="49.14749" lon="1.1587">
        <ele>51.4</ele>
        <time>2016-11-21T17:40:10Z</time>
      </trkpt>
      <trkpt lat="49.14654" lon="1.15672">
        <ele>45.5</ele>
        <time>2016-11-21T17:40:30Z</time>
      </trkpt>
      <trkpt lat="49.14617" lon="1.15538">
        <ele>36.2</ele>
        <time>2016-11-21T17:40:50Z</time>
      </trkpt>
      <trkpt lat="49.14533" lon="1.15379">
        <ele>37.4</ele>
        <time>2016-11-21T17:41:50Z</time>
      </trkpt>
      <trkpt lat="49.14468" lon="1.15237">
        <ele>36.5</ele>
        <time>2016-11-21T17:42:10Z</time>
      </trkpt>
      <trkpt lat="49.14368" lon="1.15089">
        <ele>44.5</ele>
        <time>2016-11-21T17:42:30Z</time>
      </trkpt>
      <trkpt lat="49.14252" lon="1.14859">
        <ele>38.4</ele>
        <time>2016-11-21T17:42:50Z</time>
      </trkpt>
      <trkpt lat="49.14136" lon="1.14602">
        <ele>45.5</ele>
        <time>2016-11-21T17:43:10Z</time>
      </trkpt>
      <trkpt lat="49.14053" lon="1.14383">
        <ele>49.9</ele>
        <time>2016-11-21T17:43:30Z</time>
      </trkpt>
      <trkpt lat="49.14043" lon="1.14273">
        <ele>48.1</ele>
        <time>2016-11-21T17:43:50Z</time>
      </trkpt>
      <trkpt lat="49.14039" lon="1.14023">
        <ele>36</ele>
        <time>2016-11-21T17:44:10Z</time>
      </trkpt>
      <trkpt lat="49.14031" lon="1.1391">
        <ele>30.7</ele>
        <time>2016-11-21T17:44:30Z</time>
      </trkpt>
      <trkpt lat="49.14003" lon="1.1375">
        <ele>32.4</ele>
        <time>2016-11-21T17:44:50Z</time>
      </trkpt>
      <trkpt lat="49.13967" lon="1.13523">
        <ele>43.9</ele>
        <time>2016-11-21T17:45:10Z</time>
      </trkpt>
      <trkpt lat="49.13893" lon="1.13261">
        <ele>47.6</ele>
        <time>2016-11-21T17:45:30Z</time>
      </trkpt>
      <trkpt lat="49.13805" lon="1.12996">
        <ele>37.4</ele>
        <time>2016-11-21T17:45:50Z</time>
      </trkpt>
      <trkpt lat="49.13792" lon="1.12941">
        <ele>38.1</ele>
        <time>2016-11-21T17:46:10Z</time>
      </trkpt>
      <trkpt lat="49.13806" lon="1.12915">
        <ele>30.9</ele>
        <time>2016-11-21T17:46:30Z</time>
      </trkpt>
      <trkpt lat="49.13707" lon="1.1277">
        <ele>36.2</ele>
        <time>2016-11-21T17:46:50Z</time>
      </trkpt>
      <trkpt lat="49.13676" lon="1.12767">
        <ele>37.1</ele>
        <time>2016-11-21T17:47:10Z</time>
      </trkpt>
      <trkpt lat="49.13642" lon="1.1274">
        <ele>40.3</ele>
        <time>2016-11-21T17:47:30Z</time>
      </trkpt>
      <trkpt lat="49.13585" lon="1.12666">
        <ele>36.6</ele>
        <time>2016-11-21T17:47:50Z</time>
      </trkpt>
      <trkpt lat="49.13494" lon="1.12588">
        <ele>41.3</ele>
        <time>2016-11-21T17:48:10Z</time>
      </trkpt>
      <trkpt lat="49.13465" lon="1.12553">
        <ele>37</ele>
        <time>2016-11-21T17:48:30Z</time>
      </trkpt>
      <trkpt lat="49.133" lon="1.12479">
        <ele>36</ele>
        <time>2016-11-21T17:48:50Z</time>
      </trkpt>
      <trkpt lat="49.13203" lon="1.12435">
        <ele>38.3</ele>
        <time>2016-11-21T17:49:10Z</time>
      </trkpt>
      <trkpt lat="49.13068" lon="1.12444">
        <ele>46.2</ele>
        <time>2016-11-21T17:49:30Z</time>
      </trkpt>
      <trkpt lat="49.12981" lon="1.12602">
        <ele>61.8</ele>
        <time>2016-11-21T17:49:50Z</time>
      </trkpt>
      <trkpt lat="49.1294" lon="1.12553">
        <ele>61.9</ele>
        <time>2016-11-21T17:50:10Z</time>
      </trkpt>
      <trkpt lat="49.12868" lon="1.12554">
        <ele>76.1</ele>
        <time>2016-11-21T17:50:30Z</time>
      </trkpt>
      <trkpt lat="49.1275" lon="1.12517">
        <ele>101.5</ele>
        <time>2016-11-21T17:50:50Z</time>
      </trkpt>
      <trkpt lat="49.12689" lon="1.12536">
        <ele>106.1</ele>
        <time>2016-11-21T17:51:10Z</time>
      </trkpt>
      <trkpt lat="49.12598" lon="1.12583">
        <ele>114.9</ele>
        <time>2016-11-21T17:51:30Z</time>
      </trkpt>
      <trkpt lat="49.12538" lon="1.12584">
        <ele>121</ele>
        <time>2016-11-21T17:51:50Z</time>
      </trkpt>
      <trkpt lat="49.12429" lon="1.12568">
        <ele>127.9</ele>
        <time>2016-11-21T17:52:10Z</time>
      </trkpt>
      <trkpt lat="49.12395" lon="1.12572">
        <ele>129.7</ele>
        <time>2016-11-21T17:52:30Z</time>
      </trkpt>
      <trkpt lat="49.12334" lon="1.12553">
        <ele>130</ele>
        <time>2016-11-21T17:52:50Z</time>
      </trkpt>
      <trkpt lat="49.12277" lon="1.12582">
        <ele>131.8</ele>
        <time>2016-11-21T17:53:10Z</time>
      </trkpt>
      <trkpt lat="49.12197" lon="1.12649">
        <ele>133.8</ele>
        <time>2016-11-21T17:53:30Z</time>
      </trkpt>
      <trkpt lat="49.12124" lon="1.12679">
        <ele>136</ele>
        <time>2016-11-21T17:53:50Z</time>
      </trkpt>
      <trkpt lat="49.1205" lon="1.12685">
        <ele>137.4</ele>
        <time>2016-11-21T17:54:10Z</time>
      </trkpt>
      <trkpt lat="49.1191" lon="1.12667">
        <ele>139.4</ele>
        <time>2016-11-21T17:54:30Z</time>
      </trkpt>
      <trkpt lat="49.11548" lon="1.126">
        <ele>135.9</ele>
        <time>2016-11-21T17:54:50Z</time>
      </trkpt>
      <trkpt lat="49.11474" lon="1.12577">
        <ele>138.4</ele>
        <time>2016-11-21T17:55:10Z</time>
      </trkpt>
      <trkpt lat="49.1143" lon="1.12551">
        <ele>139.1</ele>
        <time>2016-11-21T17:55:30Z</time>
      </trkpt>
      <trkpt lat="49.1137" lon="1.12584">
        <ele>135.8</ele>
        <time>2016-11-21T17:55:50Z</time>
      </trkpt>
      <trkpt lat="49.11315" lon="1.12627">
        <ele>133.7</ele>
        <time>2016-11-21T17:56:10Z</time>
      </trkpt>
      <trkpt lat="49.11297" lon="1.12472">
        <ele>127.5</ele>
        <time>2016-11-21T17:56:30Z</time>
      </trkpt>
      <trkpt lat="49.11314" lon="1.12287">
        <ele>105.5</ele>
        <time>2016-11-21T17:56:50Z</time>
      </trkpt>
      <trkpt lat="49.11304" lon="1.12249">
        <ele>94</ele>
        <time>2016-11-21T17:57:10Z</time>
      </trkpt>
      <trkpt lat="49.11277" lon="1.122">
        <ele>90.9</ele>
        <time>2016-11-21T17:57:30Z</time>
      </trkpt>
      <trkpt lat="49.11114" lon="1.12063">
        <ele>60.7</ele>
        <time>2016-11-21T17:57:50Z</time>
      </trkpt>
      <trkpt lat="49.11079" lon="1.11989">
        <ele>47.5</ele>
        <time>2016-11-21T17:58:10Z</time>
      </trkpt>
      <trkpt lat="49.11078" lon="1.1188">
        <ele>38.4</ele>
        <time>2016-11-21T17:58:30Z</time>
      </trkpt>
      <trkpt lat="49.1107" lon="1.11815">
        <ele>36.7</ele>
        <time>2016-11-21T17:58:50Z</time>
      </trkpt>
      <trkpt lat="49.11086" lon="1.11611">
        <ele>36.5</ele>
        <time>2016-11-21T17:59:10Z</time>
      </trkpt>
      <trkpt lat="49.11085" lon="1.11526">
        <ele>36.8</ele>
        <time>2016-11-21T17:59:30Z</time>
      </trkpt>
      <trkpt lat="49.1114" lon="1.11524">
        <ele>36.8</ele>
        <time>2016-11-21T17:59:50Z</time>
      </trkpt>
      <trkpt lat="49.11173" lon="1.11453">
        <ele>37.2</ele>
        <time>2016-11-21T18:00:10Z</time>
      </trkpt>
      <trkpt lat="49.11159" lon="1.11425">
        <ele>37.1</ele>
        <time>2016-11-21T18:00:30Z</time>
      </trkpt>
      <trkpt lat="49.11166" lon="1.11374">
        <ele>37.5</ele>
        <time>2016-11-21T18:00:50Z</time>
      </trkpt>
      <trkpt lat="49.11163" lon="1.11183">
        <ele>46.9</ele>
        <time>2016-11-21T18:01:10Z</time>
      </trkpt>
      <trkpt lat="49.11193" lon="1.11082">
        <ele>55.8</ele>
        <time>2016-11-21T18:01:30Z</time>
      </trkpt>
      <trkpt lat="49.11187" lon="1.10932">
        <ele>67.7</ele>
        <time>2016-11-21T18:01:50Z</time>
      </trkpt>
      <trkpt lat="49.11169" lon="1.10883">
        <ele>76.3</ele>
        <time>2016-11-21T18:02:10Z</time>
      </trkpt>
      <trkpt lat="49.1114" lon="1.10832">
        <ele>89.3</ele>
        <time>2016-11-21T18:02:30Z</time>
      </trkpt>
      <trkpt lat="49.11169" lon="1.10818">
        <ele>87.3</ele>
        <time>2016-11-21T18:02:50Z</time>
      </trkpt>
      <trkpt lat="49.1121" lon="1.10819">
        <ele>89.7</ele>
        <time>2016-11-21T18:03:10Z</time>
      </trkpt>
      <trkpt lat="49.11253" lon="1.10797">
        <ele>86.8</ele>
        <time>2016-11-21T18:03:30Z</time>
      </trkpt>
      <trkpt lat="49.11272" lon="1.10728">
        <ele>96.1</ele>
        <time>2016-11-21T18:03:50Z</time>
      </trkpt>
      <trkpt lat="49.11259" lon="1.10644">
        <ele>104.9</ele>
        <time>2016-11-21T18:04:10Z</time>
      </trkpt>
      <trkpt lat="49.11213" lon="1.10531">
        <ele>118.1</ele>
        <time>2016-11-21T18:04:30Z</time>
      </trkpt>
      <trkpt lat="49.11187" lon="1.10423">
        <ele>123.4</ele>
        <time>2016-11-21T18:04:50Z</time>
      </trkpt>
      <trkpt lat="49.10753" lon="1.10212">
        <ele>135.9</ele>
        <time>2016-11-21T18:05:10Z</time>
      </trkpt>
      <trkpt lat="49.10563" lon="1.1013">
        <ele>117.2</ele>
        <time>2016-11-21T18:05:30Z</time>
      </trkpt>
      <trkpt lat="49.10537" lon="1.10058">
        <ele>109.4</ele>
        <time>2016-11-21T18:05:50Z</time>
      </trkpt>
      <trkpt lat="49.10539" lon="1.09987">
        <ele>104.9</ele>
        <time>2016-11-21T18:06:10Z</time>
      </trkpt>
      <trkpt lat="49.10552" lon="1.09912">
        <ele>103</ele>
        <time>2016-11-21T18:06:30Z</time>
      </trkpt>
      <trkpt lat="49.1053" lon="1.09928">
        <ele>101.7</ele>
        <time>2016-11-21T18:06:50Z</time>
      </trkpt>
      <trkpt lat="49.10454" lon="1.10111">
        <ele>96.1</ele>
        <time>2016-11-21T18:07:10Z</time>
      </trkpt>
      <trkpt lat="49.10408" lon="1.10313">
        <ele>76.7</ele>
        <time>2016-11-21T18:07:30Z</time>
      </trkpt>
      <trkpt lat="49.10398" lon="1.10423">
        <ele>57.1</ele>
        <time>2016-11-21T18:07:50Z</time>
      </trkpt>
      <trkpt lat="49.10395" lon="1.1048">
        <ele>52.2</ele>
        <time>2016-11-21T18:08:10Z</time>
      </trkpt>
      <trkpt lat="49.10387" lon="1.10512">
        <ele>46.7</ele>
        <time>2016-11-21T18:08:50Z</time>
      </trkpt>
      <trkpt lat="49.10367" lon="1.10504">
        <ele>45.3</ele>
        <time>2016-11-21T18:09:10Z</time>
      </trkpt>
      <trkpt lat="49.1034" lon="1.10444">
        <ele>51.2</ele>
        <time>2016-11-21T18:09:30Z</time>
      </trkpt>
      <trkpt lat="49.1034" lon="1.10444">
        <ele>51.2</ele>
        <time>2016-11-21T18:09:50Z</time>
      </trkpt>
      <trkpt lat="49.10275" lon="1.10395">
        <ele>49.7</ele>
        <time>2016-11-21T18:10:10Z</time>
      </trkpt>
      <trkpt lat="49.10125" lon="1.10413">
        <ele>44.7</ele>
        <time>2016-11-21T18:10:30Z</time>
      </trkpt>
      <trkpt lat="49.10082" lon="1.10386">
        <ele>47.4</ele>
        <time>2016-11-21T18:10:50Z</time>
      </trkpt>
      <trkpt lat="49.10054" lon="1.10357">
        <ele>48.5</ele>
        <time>2016-11-21T18:11:10Z</time>
      </trkpt>
      <trkpt lat="49.1001" lon="1.10361">
        <ele>51.2</ele>
        <time>2016-11-21T18:11:30Z</time>
      </trkpt>
      <trkpt lat="49.09898" lon="1.10422">
        <ele>49.4</ele>
        <time>2016-11-21T18:11:50Z</time>
      </trkpt>
      <trkpt lat="49.09859" lon="1.10416">
        <ele>60.3</ele>
        <time>2016-11-21T18:12:10Z</time>
      </trkpt>
      <trkpt lat="49.09619" lon="1.10532">
        <ele>73.9</ele>
        <time>2016-11-21T18:12:30Z</time>
      </trkpt>
      <trkpt lat="49.0951" lon="1.10641">
        <ele>77.2</ele>
        <time>2016-11-21T18:12:50Z</time>
      </trkpt>
      <trkpt lat="49.09427" lon="1.10779">
        <ele>73.1</ele>
        <time>2016-11-21T18:13:10Z</time>
      </trkpt>
      <trkpt lat="49.09391" lon="1.10889">
        <ele>77.4</ele>
        <time>2016-11-21T18:13:30Z</time>
      </trkpt>
      <trkpt lat="49.09358" lon="1.11089">
        <ele>67.4</ele>
        <time>2016-11-21T18:13:50Z</time>
      </trkpt>
      <trkpt lat="49.09339" lon="1.11164">
        <ele>66.2</ele>
        <time>2016-11-21T18:14:10Z</time>
      </trkpt>
      <trkpt lat="49.09332" lon="1.11261">
        <ele>67.6</ele>
        <time>2016-11-21T18:14:30Z</time>
      </trkpt>
      <trkpt lat="49.09374" lon="1.11269">
        <ele>60.2</ele>
        <time>2016-11-21T18:14:50Z</time>
      </trkpt>
      <trkpt lat="49.09439" lon="1.11254">
        <ele>53.2</ele>
        <time>2016-11-21T18:15:10Z</time>
      </trkpt>
      <trkpt lat="49.09559" lon="1.11299">
        <ele>45</ele>
        <time>2016-11-21T18:15:30Z</time>
      </trkpt>
      <trkpt lat="49.09535" lon="1.1142">
        <ele>45.6</ele>
        <time>2016-11-21T18:15:50Z</time>
      </trkpt>
      <trkpt lat="49.09486" lon="1.11491">
        <ele>48.5</ele>
        <time>2016-11-21T18:16:10Z</time>
      </trkpt>
      <trkpt lat="49.09442" lon="1.11745">
        <ele>52.5</ele>
        <time>2016-11-21T18:16:30Z</time>
      </trkpt>
      <trkpt lat="49.09351" lon="1.11879">
        <ele>59.6</ele>
        <time>2016-11-21T18:16:50Z</time>
      </trkpt>
      <trkpt lat="49.09276" lon="1.12032">
        <ele>65.9</ele>
        <time>2016-11-21T18:17:10Z</time>
      </trkpt>
      <trkpt lat="49.09253" lon="1.12021">
        <ele>67</ele>
      </trkpt>
      <trkpt lat="49.09202" lon="1.12008">
        <ele>72.6</ele>
      </trkpt>
      <trkpt lat="49.09172" lon="1.11982">
        <ele>77.9</ele>
      </trkpt>
      <trkpt lat="49.09164" lon="1.11982">
        <ele>82.6</ele>
      </trkpt>
      <trkpt lat="49.09079" lon="1.11656">
        <ele>119.9</ele>
      </trkpt>
      <trkpt lat="49.08964" lon="1.11604">
        <ele>129</ele>
      </trkpt>
      <trkpt lat="49.0884" lon="1.11416">
        <ele>137.3</ele>
      </trkpt>
      <trkpt lat="49.08733" lon="1.11227">
        <ele>142</ele>
      </trkpt>
      <trkpt lat="49.08716" lon="1.1085">
        <ele>139</ele>
      </trkpt>
      <trkpt lat="49.08704" lon="1.10414">
        <ele>142.5</ele>
      </trkpt>
      <trkpt lat="49.08746" lon="1.10134">
        <ele>141.9</ele>
      </trkpt>
      <trkpt lat="49.08699" lon="1.09887">
        <ele>142.5</ele>
      </trkpt>
      <trkpt lat="49.08529" lon="1.09705">
        <ele>142.9</ele>
      </trkpt>
      <trkpt lat="49.08393" lon="1.09406">
        <ele>142.2</ele>
      </trkpt>
      <trkpt lat="49.08396" lon="1.09419">
        <ele>140.2</ele>
      </trkpt>
      <trkpt lat="49.08495" lon="1.09525">
        <ele>137.8</ele>
      </trkpt>
      <trkpt lat="49.08592" lon="1.09502">
        <ele>134.2</ele>
      </trkpt>
      <trkpt lat="49.08673" lon="1.09534">
        <ele>128</ele>
      </trkpt>
      <trkpt lat="49.08703" lon="1.09506">
        <ele>126.6</ele>
      </trkpt>
      <trkpt lat="49.08785" lon="1.09529">
        <ele>118.7</ele>
      </trkpt>
      <trkpt lat="49.08893" lon="1.09529">
        <ele>106.6</ele>
      </trkpt>
      <trkpt lat="49.0898" lon="1.09626">
        <ele>102.5</ele>
      </trkpt>
      <trkpt lat="49.09032" lon="1.09635">
        <ele>100</ele>
      </trkpt>
      <trkpt lat="49.0914" lon="1.09603">
        <ele>99.8</ele>
      </trkpt>
      <trkpt lat="49.09188" lon="1.09612">
        <ele>97.5</ele>
      </trkpt>
      <trkpt lat="49.09432" lon="1.09511">
        <ele>82.5</ele>
      </trkpt>
      <trkpt lat="49.09481" lon="1.09471">
        <ele>80.3</ele>
      </trkpt>
      <trkpt lat="49.09409" lon="1.09311">
        <ele>87.6</ele>
      </trkpt>
      <trkpt lat="49.09396" lon="1.09204">
        <ele>89.4</ele>
      </trkpt>
      <trkpt lat="49.09404" lon="1.09165">
        <ele>87.1</ele>
      </trkpt>
      <trkpt lat="49.09475" lon="1.08928">
        <ele>88.4</ele>
      </trkpt>
      <trkpt lat="49.09524" lon="1.08837">
        <ele>89.5</ele>
      </trkpt>
      <trkpt lat="49.09558" lon="1.08788">
        <ele>89.9</ele>
      </trkpt>
      <trkpt lat="49.09579" lon="1.08654">
        <ele>92.6</ele>
      </trkpt>
      <trkpt lat="49.096" lon="1.08602">
        <ele>99</ele>
      </trkpt>
      <trkpt lat="49.09671" lon="1.08521">
        <ele>98.7</ele>
      </trkpt>
      <trkpt lat="49.09737" lon="1.08459">
        <ele>96.5</ele>
      </trkpt>
      <trkpt lat="49.09809" lon="1.08427">
        <ele>104</ele>
      </trkpt>
      <trkpt lat="49.09839" lon="1.08323">
        <ele>105.5</ele>
      </trkpt>
      <trkpt lat="49.09843" lon="1.0816">
        <ele>108.2</ele>
      </trkpt>
      <trkpt lat="49.09805" lon="1.07923">
        <ele>113.9</ele>
      </trkpt>
      <trkpt lat="49.09854" lon="1.07783">
        <ele>113.4</ele>
      </trkpt>
      <trkpt lat="49.09935" lon="1.07714">
        <ele>113.5</ele>
      </trkpt>
      <trkpt lat="49.10013" lon="1.07701">
        <ele>122.7</ele>
      </trkpt>
      <trkpt lat="49.10111" lon="1.07536">
        <ele>127.7</ele>
      </trkpt>
      <trkpt lat="49.1022" lon="1.07445">
        <ele>127</ele>
      </trkpt>
      <trkpt lat="49.10318" lon="1.07396">
        <ele>128.8</ele>
      </trkpt>
      <trkpt lat="49.10444" lon="1.07448">
        <ele>133.9</ele>
      </trkpt>
      <trkpt lat="49.10586" lon="1.07405">
        <ele>134.5</ele>
      </trkpt>
      <trkpt lat="49.10629" lon="1.07318">
        <ele>136.1</ele>
      </trkpt>
      <trkpt lat="49.10671" lon="1.07272">
        <ele>136.9</ele>
      </trkpt>
      <trkpt lat="49.10733" lon="1.07145">
        <ele>138.7</ele>
      </trkpt>
      <trkpt lat="49.10774" lon="1.07048">
        <ele>138.7</ele>
      </trkpt>
      <trkpt lat="49.10806" lon="1.06957">
        <ele>138.3</ele>
      </trkpt>
      <trkpt lat="49.10859" lon="1.0694">
        <ele>139.2</ele>
      </trkpt>
      <trkpt lat="49.10897" lon="1.06882">
        <ele>139.6</ele>
      </trkpt>
      <trkpt lat="49.10957" lon="1.06895">
        <ele>141.1</ele>
      </trkpt>
      <trkpt lat="49.10982" lon="1.06836">
        <ele>141</ele>
      </trkpt>
      <trkpt lat="49.11016" lon="1.06895">
        <ele>142</ele>
      </trkpt>
      <trkpt lat="49.11144" lon="1.06739">
        <ele>141.8</ele>
      </trkpt>
      <trkpt lat="49.11314" lon="1.06505">
        <ele>140.4</ele>
      </trkpt>
      <trkpt lat="49.114" lon="1.06687">
        <ele>142</ele>
      </trkpt>
      <trkpt lat="49.1151" lon="1.06674">
        <ele>141.9</ele>
      </trkpt>
      <trkpt lat="49.11655" lon="1.06615">
        <ele>139.2</ele>
      </trkpt>
      <trkpt lat="49.11817" lon="1.06498">
        <ele>138.8</ele>
      </trkpt>
      <trkpt lat="49.11825" lon="1.06381">
        <ele>138</ele>
      </trkpt>
      <trkpt lat="49.11783" lon="1.06134">
        <ele>136.2</ele>
      </trkpt>
      <trkpt lat="49.11847" lon="1.06062">
        <ele>139</ele>
      </trkpt>
      <trkpt lat="49.11991" lon="1.06004">
        <ele>145.5</ele>
      </trkpt>
      <trkpt lat="49.11953" lon="1.05835">
        <ele>142</ele>
      </trkpt>
      <trkpt lat="49.1197" lon="1.05691">
        <ele>138.9</ele>
      </trkpt>
      <trkpt lat="49.12051" lon="1.05561">
        <ele>130.3</ele>
      </trkpt>
      <trkpt lat="49.12166" lon="1.05464">
        <ele>126.9</ele>
      </trkpt>
      <trkpt lat="49.12217" lon="1.05399">
        <ele>125.9</ele>
      </trkpt>
      <trkpt lat="49.12234" lon="1.05262">
        <ele>122.7</ele>
      </trkpt>
      <trkpt lat="49.12281" lon="1.05178">
        <ele>122.7</ele>
      </trkpt>
      <trkpt lat="49.12345" lon="1.05165">
        <ele>120.8</ele>
      </trkpt>
      <trkpt lat="49.12464" lon="1.05178">
        <ele>117.1</ele>
      </trkpt>
      <trkpt lat="49.12532" lon="1.05126">
        <ele>108.4</ele>
      </trkpt>
      <trkpt lat="49.1263" lon="1.05165">
        <ele>107.2</ele>
      </trkpt>
      <trkpt lat="49.12804" lon="1.05152">
        <ele>108.2</ele>
      </trkpt>
      <trkpt lat="49.12932" lon="1.05301">
        <ele>109.3</ele>
      </trkpt>
      <trkpt lat="49.12953" lon="1.05444">
        <ele>102.9</ele>
      </trkpt>
      <trkpt lat="49.13055" lon="1.05639">
        <ele>103.9</ele>
      </trkpt>
      <trkpt lat="49.13102" lon="1.05639">
        <ele>106.3</ele>
      </trkpt>
      <trkpt lat="49.132" lon="1.0577">
        <ele>104.4</ele>
      </trkpt>
      <trkpt lat="49.13209" lon="1.05861">
        <ele>102.6</ele>
      </trkpt>
      <trkpt lat="49.13183" lon="1.05939">
        <ele>100.3</ele>
      </trkpt>
      <trkpt lat="49.13183" lon="1.06121">
        <ele>96.5</ele>
      </trkpt>
      <trkpt lat="49.13204" lon="1.06257">
        <ele>97</ele>
      </trkpt>
      <trkpt lat="49.13264" lon="1.06414">
        <ele>94.7</ele>
      </trkpt>
      <trkpt lat="49.13404" lon="1.06446">
        <ele>85.9</ele>
      </trkpt>
      <trkpt lat="49.13536" lon="1.06498">
        <ele>79</ele>
      </trkpt>
      <trkpt lat="49.13605" lon="1.06492">
        <ele>76.6</ele>
      </trkpt>
      <trkpt lat="49.13698" lon="1.064">
        <ele>81.3</ele>
      </trkpt>
      <trkpt lat="49.1426" lon="1.0644">
        <ele>77.2</ele>
      </trkpt>
      <trkpt lat="49.14294" lon="1.06056">
        <ele>78.3</ele>
      </trkpt>
      <trkpt lat="49.14226" lon="1.05893">
        <ele>85.1</ele>
      </trkpt>
      <trkpt lat="49.142" lon="1.05776">
        <ele>85.4</ele>
      </trkpt>
      <trkpt lat="49.14319" lon="1.05399">
        <ele>116</ele>
      </trkpt>
      <trkpt lat="49.14349" lon="1.05178">
        <ele>125.9</ele>
      </trkpt>
      <trkpt lat="49.14439" lon="1.05002">
        <ele>132.2</ele>
      </trkpt>
      <trkpt lat="49.14617" lon="1.04768">
        <ele>133.4</ele>
      </trkpt>
      <trkpt lat="49.1469" lon="1.05061">
        <ele>136</ele>
      </trkpt>
      <trkpt lat="49.14609" lon="1.05158">
        <ele>133.5</ele>
      </trkpt>
      <trkpt lat="49.14596" lon="1.05717">
        <ele>137.2</ele>
      </trkpt>
      <trkpt lat="49.1469" lon="1.06023">
        <ele>138.4</ele>
      </trkpt>
      <trkpt lat="49.14698" lon="1.06199">
        <ele>134.2</ele>
      </trkpt>
      <trkpt lat="49.14762" lon="1.06283">
        <ele>136.1</ele>
      </trkpt>
      <trkpt lat="49.15324" lon="1.05887">
        <ele>132.1</ele>
      </trkpt>
      <trkpt lat="49.15379" lon="1.05796">
        <ele>135</ele>
      </trkpt>
      <trkpt lat="49.15477" lon="1.05477">
        <ele>139.7</ele>
      </trkpt>
      <trkpt lat="49.15762" lon="1.05002">
        <ele>143.8</ele>
      </trkpt>
      <trkpt lat="49.16043" lon="1.0495">
        <ele>139.9</ele>
      </trkpt>
      <trkpt lat="49.16328" lon="1.05074">
        <ele>127.9</ele>
      </trkpt>
      <trkpt lat="49.16366" lon="1.05236">
        <ele>129.1</ele>
      </trkpt>
      <trkpt lat="49.16519" lon="1.05249">
        <ele>145.7</ele>
      </trkpt>
      <trkpt lat="49.16574" lon="1.05288">
        <ele>146.8</ele>
      </trkpt>
      <trkpt lat="49.16876" lon="1.05347">
        <ele>150.3</ele>
      </trkpt>
      <trkpt lat="49.16961" lon="1.05074">
        <ele>153.8</ele>
      </trkpt>
      <trkpt lat="49.17272" lon="1.04976">
        <ele>152.4</ele>
      </trkpt>
      <trkpt lat="49.17276" lon="1.05021">
        <ele>152.4</ele>
      </trkpt>
      <trkpt lat="49.17357" lon="1.05028">
        <ele>153</ele>
      </trkpt>
      <trkpt lat="49.18262" lon="1.04176">
        <ele>154</ele>
      </trkpt>
      <trkpt lat="49.18424" lon="1.04508">
        <ele>157.1</ele>
      </trkpt>
      <trkpt lat="49.18553" lon="1.04295">
        <ele>156.8</ele>
      </trkpt>
      <trkpt lat="49.18968" lon="1.04341">
        <ele>157.8</ele>
      </trkpt>
      <trkpt lat="49.19206" lon="1.04371">
        <ele>160.3</ele>
      </trkpt>
      <trkpt lat="49.19279" lon="1.04378">
        <ele>160.3</ele>
      </trkpt>
      <trkpt lat="49.1933" lon="1.03961">
        <ele>157.2</ele>
      </trkpt>
      <trkpt lat="49.19347" lon="1.03909">
        <ele>156.5</ele>
      </trkpt>
      <trkpt lat="49.19589" lon="1.04111">
        <ele>156.2</ele>
      </trkpt>
      <trkpt lat="49.19733" lon="1.0441">
        <ele>158.7</ele>
      </trkpt>
      <trkpt lat="49.19742" lon="1.04794">
        <ele>158</ele>
      </trkpt>
      <trkpt lat="49.20418" lon="1.05217">
        <ele>156.2</ele>
      </trkpt>
      <trkpt lat="49.20507" lon="1.0536">
        <ele>158</ele>
      </trkpt>
      <trkpt lat="49.2049" lon="1.05607">
        <ele>157.8</ele>
      </trkpt>
      <trkpt lat="49.20639" lon="1.05763">
        <ele>155.7</ele>
      </trkpt>
      <trkpt lat="49.20966" lon="1.05685">
        <ele>160.6</ele>
      </trkpt>
      <trkpt lat="49.21102" lon="1.05704">
        <ele>161.7</ele>
      </trkpt>
      <trkpt lat="49.2131" lon="1.05809">
        <ele>157</ele>
      </trkpt>
      <trkpt lat="49.21408" lon="1.05828">
        <ele>154.3</ele>
      </trkpt>
      <trkpt lat="49.21659" lon="1.05717">
        <ele>146</ele>
      </trkpt>
      <trkpt lat="49.22122" lon="1.05574">
        <ele>140.3</ele>
      </trkpt>
      <trkpt lat="49.22159" lon="1.05909">
        <ele>143.1</ele>
      </trkpt>
      <trkpt lat="49.22312" lon="1.06406">
        <ele>143.2</ele>
      </trkpt>
      <trkpt lat="49.22501" lon="1.06383">
        <ele>142.4</ele>
      </trkpt>
      <trkpt lat="49.22544" lon="1.06378">
        <ele>142.3</ele>
      </trkpt>
      <trkpt lat="49.22616" lon="1.06576">
        <ele>139.2</ele>
      </trkpt>
      <trkpt lat="49.22637" lon="1.06622">
        <ele>137.9</ele>
      </trkpt>
      <trkpt lat="49.22709" lon="1.06696">
        <ele>134.5</ele>
      </trkpt>
      <trkpt lat="49.22751" lon="1.06769">
        <ele>132.8</ele>
      </trkpt>
      <trkpt lat="49.22772" lon="1.06765">
        <ele>132.4</ele>
      </trkpt>
      <trkpt lat="49.22997" lon="1.06953">
        <ele>128.8</ele>
      </trkpt>
      <trkpt lat="49.23063" lon="1.06935">
        <ele>127.1</ele>
      </trkpt>
      <trkpt lat="49.23063" lon="1.07022">
        <ele>126.7</ele>
      </trkpt>
      <trkpt lat="49.23156" lon="1.07252">
        <ele>127.5</ele>
      </trkpt>
      <trkpt lat="49.23222" lon="1.07367">
        <ele>127.7</ele>
      </trkpt>
      <trkpt lat="49.2343" lon="1.07878">
        <ele>137.4</ele>
      </trkpt>
      <trkpt lat="49.23472" lon="1.08388">
        <ele>133.6</ele>
      </trkpt>
      <trkpt lat="49.23592" lon="1.08678">
        <ele>129.9</ele>
      </trkpt>
      <trkpt lat="49.2418" lon="1.08283">
        <ele>126.5</ele>
      </trkpt>
      <trkpt lat="49.2425" lon="1.08254">
        <ele>125.2</ele>
      </trkpt>
      <trkpt lat="49.24339" lon="1.08274">
        <ele>124.2</ele>
      </trkpt>
      <trkpt lat="49.24441" lon="1.08196">
        <ele>122.7</ele>
      </trkpt>
      <trkpt lat="49.24551" lon="1.0815">
        <ele>119.6</ele>
      </trkpt>
      <trkpt lat="49.24674" lon="1.08131">
        <ele>120</ele>
      </trkpt>
      <trkpt lat="49.24814" lon="1.08053">
        <ele>121.4</ele>
      </trkpt>
      <trkpt lat="49.24976" lon="1.0804">
        <ele>118.9</ele>
      </trkpt>
      <trkpt lat="49.25112" lon="1.08111">
        <ele>115.1</ele>
      </trkpt>
      <trkpt lat="49.25116" lon="1.08319">
        <ele>118.8</ele>
      </trkpt>
      <trkpt lat="49.25146" lon="1.08397">
        <ele>118.7</ele>
      </trkpt>
      <trkpt lat="49.25282" lon="1.08365">
        <ele>120.6</ele>
      </trkpt>
      <trkpt lat="49.25315" lon="1.08222">
        <ele>118.9</ele>
      </trkpt>
      <trkpt lat="49.25659" lon="1.08066">
        <ele>126.3</ele>
      </trkpt>
      <trkpt lat="49.25761" lon="1.07935">
        <ele>128.5</ele>
      </trkpt>
      <trkpt lat="49.25775" lon="1.0794">
        <ele>128.3</ele>
      </trkpt>
      <trkpt lat="49.25857" lon="1.0805">
        <ele>131.9</ele>
      </trkpt>
      <trkpt lat="49.25845" lon="1.08096">
        <ele>132.6</ele>
      </trkpt>
      <trkpt lat="49.25892" lon="1.08149">
        <ele>133.7</ele>
      </trkpt>
      <trkpt lat="49.25952" lon="1.08255">
        <ele>132.5</ele>
      </trkpt>
      <trkpt lat="49.26039" lon="1.08347">
        <ele>131.5</ele>
      </trkpt>
      <trkpt lat="49.26115" lon="1.08448">
        <ele>133.7</ele>
      </trkpt>
      <trkpt lat="49.26133" lon="1.08547">
        <ele>130.9</ele>
      </trkpt>
      <trkpt lat="49.26183" lon="1.08582">
        <ele>132.7</ele>
      </trkpt>
      <trkpt lat="49.26217" lon="1.08616">
        <ele>130.6</ele>
      </trkpt>
      <trkpt lat="49.2624" lon="1.08678">
        <ele>128</ele>
      </trkpt>
      <trkpt lat="49.26285" lon="1.08747">
        <ele>128.5</ele>
      </trkpt>
      <trkpt lat="49.26417" lon="1.08789">
        <ele>121.1</ele>
      </trkpt>
      <trkpt lat="49.26482" lon="1.08851">
        <ele>110.7</ele>
      </trkpt>
      <trkpt lat="49.26486" lon="1.08871">
        <ele>109.4</ele>
      </trkpt>
      <trkpt lat="49.26512" lon="1.08881">
        <ele>106.9</ele>
      </trkpt>
      <trkpt lat="49.26528" lon="1.08897">
        <ele>106</ele>
      </trkpt>
      <trkpt lat="49.26555" lon="1.08908">
        <ele>105.4</ele>
      </trkpt>
      <trkpt lat="49.26606" lon="1.0889">
        <ele>104.4</ele>
      </trkpt>
      <trkpt lat="49.26636" lon="1.0886">
        <ele>105.8</ele>
      </trkpt>
      <trkpt lat="49.26716" lon="1.08952">
        <ele>90.2</ele>
      </trkpt>
      <trkpt lat="49.2681" lon="1.09072">
        <ele>86.5</ele>
      </trkpt>
      <trkpt lat="49.26896" lon="1.09067">
        <ele>85.7</ele>
      </trkpt>
      <trkpt lat="49.26968" lon="1.09097">
        <ele>86</ele>
      </trkpt>
      <trkpt lat="49.2705" lon="1.09069">
        <ele>77.8</ele>
      </trkpt>
      <trkpt lat="49.27121" lon="1.09042">
        <ele>76.4</ele>
      </trkpt>
      <trkpt lat="49.27176" lon="1.08986">
        <ele>73.2</ele>
      </trkpt>
      <trkpt lat="49.27212" lon="1.08943">
        <ele>73.1</ele>
      </trkpt>
      <trkpt lat="49.27224" lon="1.08963">
        <ele>74.3</ele>
      </trkpt>
      <trkpt lat="49.27235" lon="1.08901">
        <ele>69.8</ele>
      </trkpt>
      <trkpt lat="49.27253" lon="1.08888">
        <ele>71.1</ele>
      </trkpt>
      <trkpt lat="49.27262" lon="1.08846">
        <ele>68</ele>
      </trkpt>
      <trkpt lat="49.2728" lon="1.08805">
        <ele>64.7</ele>
      </trkpt>
      <trkpt lat="49.27319" lon="1.08775">
        <ele>64</ele>
      </trkpt>
      <trkpt lat="49.27332" lon="1.08763">
        <ele>63.2</ele>
      </trkpt>
      <trkpt lat="49.27377" lon="1.08646">
        <ele>61</ele>
      </trkpt>
      <trkpt lat="49.27416" lon="1.08692">
        <ele>59.8</ele>
      </trkpt>
      <trkpt lat="49.27595" lon="1.0837">
        <ele>47.4</ele>
      </trkpt>
      <trkpt lat="49.27664" lon="1.08549">
        <ele>48.9</ele>
      </trkpt>
      <trkpt lat="49.27736" lon="1.08832">
        <ele>59.1</ele>
      </trkpt>
      <trkpt lat="49.27771" lon="1.08986">
        <ele>62.2</ele>
      </trkpt>
      <trkpt lat="49.27775" lon="1.09021">
        <ele>62.8</ele>
      </trkpt>
      <trkpt lat="49.27943" lon="1.09318">
        <ele>61.3</ele>
      </trkpt>
      <trkpt lat="49.28051" lon="1.09525">
        <ele>64.1</ele>
      </trkpt>
      <trkpt lat="49.28033" lon="1.09552">
        <ele>64.8</ele>
      </trkpt>
      <trkpt lat="49.28056" lon="1.09596">
        <ele>65.8</ele>
      </trkpt>
      <trkpt lat="49.28161" lon="1.09727">
        <ele>65.2</ele>
      </trkpt>
      <trkpt lat="49.28218" lon="1.10021">
        <ele>67.7</ele>
      </trkpt>
      <trkpt lat="49.28203" lon="1.1007">
        <ele>68.9</ele>
      </trkpt>
      <trkpt lat="49.28215" lon="1.10104">
        <ele>70.6</ele>
      </trkpt>
      <trkpt lat="49.28222" lon="1.10097">
        <ele>70.1</ele>
      </trkpt>
      <trkpt lat="49.28297" lon="1.10159">
        <ele>67.4</ele>
      </trkpt>
      <trkpt lat="49.28324" lon="1.1018">
        <ele>69.6</ele>
      </trkpt>
      <trkpt lat="49.28381" lon="1.10265">
        <ele>72.6</ele>
      </trkpt>
      <trkpt lat="49.28392" lon="1.10339">
        <ele>72.1</ele>
      </trkpt>
      <trkpt lat="49.28416" lon="1.10362">
        <ele>71.9</ele>
      </trkpt>
      <trkpt lat="49.28425" lon="1.10408">
        <ele>70.1</ele>
      </trkpt>
      <trkpt lat="49.28443" lon="1.10396">
        <ele>69.2</ele>
      </trkpt>
      <trkpt lat="49.2845" lon="1.10408">
        <ele>68.9</ele>
      </trkpt>
      <trkpt lat="49.28449" lon="1.10424">
        <ele>67.4</ele>
      </trkpt>
      <trkpt lat="49.2847" lon="1.10461">
        <ele>65.8</ele>
      </trkpt>
      <trkpt lat="49.28488" lon="1.10495">
        <ele>63.7</ele>
      </trkpt>
      <trkpt lat="49.28504" lon="1.10532">
        <ele>59.3</ele>
      </trkpt>
      <trkpt lat="49.28525" lon="1.10557">
        <ele>58.5</ele>
      </trkpt>
      <trkpt lat="49.28534" lon="1.10582">
        <ele>58.2</ele>
      </trkpt>
      <trkpt lat="49.28551" lon="1.10592">
        <ele>57.1</ele>
      </trkpt>
      <trkpt lat="49.28555" lon="1.10635">
        <ele>57.2</ele>
      </trkpt>
      <trkpt lat="49.28518" lon="1.11091">
        <ele>68.3</ele>
      </trkpt>
      <trkpt lat="49.28723" lon="1.11355">
        <ele>60</ele>
      </trkpt>
      <trkpt lat="49.28891" lon="1.11558">
        <ele>48.7</ele>
      </trkpt>
      <trkpt lat="49.2934" lon="1.12121">
        <ele>42.4</ele>
      </trkpt>
      <trkpt lat="49.29357" lon="1.12125">
        <ele>42.3</ele>
      </trkpt>
      <trkpt lat="49.29395" lon="1.1231">
        <ele>43.8</ele>
      </trkpt>
      <trkpt lat="49.29389" lon="1.1236">
        <ele>45.8</ele>
      </trkpt>
      <trkpt lat="49.29337" lon="1.12414">
        <ele>46.8</ele>
      </trkpt>
      <trkpt lat="49.29315" lon="1.12476">
        <ele>48.4</ele>
      </trkpt>
      <trkpt lat="49.2948" lon="1.1266">
        <ele>48.9</ele>
      </trkpt>
      <trkpt lat="49.29247" lon="1.13094">
        <ele>55.5</ele>
      </trkpt>
      <trkpt lat="49.29728" lon="1.13678">
        <ele>41.1</ele>
      </trkpt>
      <trkpt lat="49.29785" lon="1.13604">
        <ele>40.7</ele>
      </trkpt>
      <trkpt lat="49.29812" lon="1.13597">
        <ele>39.6</ele>
      </trkpt>
      <trkpt lat="49.29883" lon="1.13627">
        <ele>36.9</ele>
      </trkpt>
      <trkpt lat="49.29926" lon="1.13637">
        <ele>35.3</ele>
      </trkpt>
      <trkpt lat="49.29926" lon="1.13653">
        <ele>35.5</ele>
      </trkpt>
      <trkpt lat="49.29887" lon="1.13699">
        <ele>33.7</ele>
      </trkpt>
    </trkseg>
  </trk>
</gpx>